createdAt,value
2024-03-09T00:02:14.381Z,9.40
2024-03-09T00:04:45.202Z,9.50
2024-03-09T00:07:12.740Z,9.50
2024-03-09T00:09:40.318Z,9.50
2024-03-09T00:12:13.058Z,9.50
2024-03-09T00:14:40.139Z,9.50
2024-03-09T00:17:08.540Z,9.50
2024-03-09T00:19:37.615Z,9.60
2024-03-09T00:22:48.545Z,9.70
2024-03-09T00:25:16.886Z,9.60
2024-03-09T00:27:47.243Z,9.50
2024-03-09T00:30:24.222Z,9.50
2024-03-09T00:32:55.198Z,9.70
2024-03-09T00:35:31.994Z,9.80
2024-03-09T00:38:02.637Z,9.70
2024-03-09T00:40:30.330Z,9.70
2024-03-09T00:42:58.493Z,9.70
2024-03-09T00:45:27.278Z,9.70
2024-03-09T00:47:57.411Z,9.70
2024-03-09T00:50:32.385Z,9.70
2024-03-09T00:53:01.127Z,9.60
2024-03-09T00:55:29.554Z,9.60
2024-03-09T00:57:57.361Z,9.50
2024-03-09T01:00:27.619Z,9.60
2024-03-09T01:02:55.686Z,9.60
2024-03-09T01:05:24.907Z,9.40
2024-03-09T01:07:55.395Z,9.30
2024-03-09T01:10:23.713Z,9.30
2024-03-09T01:12:52.765Z,9.40
2024-03-09T01:15:22.027Z,9.30
2024-03-09T01:17:52.416Z,9.40
2024-03-09T01:20:50.699Z,9.50
2024-03-09T01:24:00.630Z,9.70
2024-03-09T01:26:29.646Z,9.40
2024-03-09T01:28:56.621Z,9.30
2024-03-09T01:34:16.839Z,9.50
2024-03-09T01:36:47.384Z,9.50
2024-03-09T01:39:17.025Z,9.40
2024-03-09T01:41:49.328Z,9.50
2024-03-09T01:44:16.415Z,9.40
2024-03-09T01:46:47.562Z,9.20
2024-03-09T01:49:17.640Z,9.20
2024-03-09T01:51:51.175Z,9.10
2024-03-09T01:54:25.098Z,9.10
2024-03-09T01:56:57.091Z,9.10
2024-03-09T01:59:26.440Z,8.90
2024-03-09T02:01:53.542Z,9.10
2024-03-09T02:04:22.147Z,9.10
2024-03-09T02:06:49.148Z,9.10
2024-03-09T02:09:20.145Z,9.00
2024-03-09T02:11:51.445Z,8.90
2024-03-09T02:14:19.508Z,8.80
2024-03-09T02:16:53.841Z,8.80
2024-03-09T02:19:22.902Z,8.80
2024-03-09T02:21:53.409Z,8.80
2024-03-09T02:24:25.477Z,8.80
2024-03-09T02:26:54.148Z,8.90
2024-03-09T02:29:24.940Z,8.90
2024-03-09T02:31:56.344Z,9.10
2024-03-09T02:34:23.274Z,9.20
2024-03-09T02:36:56.172Z,9.20
2024-03-09T02:39:25.026Z,9.10
2024-03-09T02:41:53.021Z,9.10
2024-03-09T02:44:23.179Z,8.90
2024-03-09T02:46:53.553Z,8.90
2024-03-09T02:49:21.756Z,9.10
2024-03-09T02:51:51.980Z,9.00
2024-03-09T02:54:21.150Z,9.00
2024-03-09T02:56:48.421Z,8.90
2024-03-09T02:59:17.500Z,8.80
2024-03-09T03:01:49.498Z,8.90
2024-03-09T03:04:25.595Z,8.80
2024-03-09T03:06:53.728Z,8.70
2024-03-09T03:09:23.998Z,8.60
2024-03-09T03:11:54.133Z,8.60
2024-03-09T03:14:23.360Z,8.60
2024-03-09T03:16:52.529Z,8.60
2024-03-09T03:19:48.146Z,8.50
2024-03-09T03:22:19.672Z,8.60
2024-03-09T03:24:50.497Z,8.50
2024-03-09T03:27:51.863Z,8.50
2024-03-09T03:37:07.285Z,8.50
2024-03-09T03:39:36.410Z,8.50
2024-03-09T03:42:05.632Z,8.50
2024-03-09T03:44:36.970Z,8.50
2024-03-09T03:47:48.938Z,8.50
2024-03-09T03:50:17.148Z,8.50
2024-03-09T03:52:45.191Z,8.40
2024-03-09T03:55:15.660Z,8.40
2024-03-09T03:57:45.252Z,8.30
2024-03-09T04:00:17.420Z,8.40
2024-03-09T04:02:44.779Z,8.30
2024-03-09T04:05:13.194Z,8.30
2024-03-09T04:07:42.398Z,8.20
2024-03-09T04:10:15.585Z,8.20
2024-03-09T04:12:43.768Z,8.20
2024-03-09T04:15:36.085Z,8.20
2024-03-09T04:18:06.760Z,8.20
2024-03-09T04:20:36.925Z,8.20
2024-03-09T04:23:06.667Z,8.20
2024-03-09T04:25:37.197Z,8.10
2024-03-09T04:28:04.538Z,8.10
2024-03-09T04:30:34.472Z,8.10
2024-03-09T04:33:08.002Z,8.00
2024-03-09T04:35:36.128Z,8.00
2024-03-09T04:38:15.488Z,8.00
2024-03-09T04:40:45.216Z,8.00
2024-03-09T04:43:14.853Z,8.10
2024-03-09T04:45:42.841Z,8.10
2024-03-09T04:48:11.436Z,7.90
2024-03-09T04:54:17.481Z,7.90
2024-03-09T04:57:12.219Z,7.90
2024-03-09T04:59:40.466Z,7.80
2024-03-09T05:02:15.184Z,7.80
2024-03-09T05:04:50.697Z,7.90
2024-03-09T05:07:18.420Z,7.90
2024-03-09T05:12:30.653Z,7.80
2024-03-09T05:17:48.603Z,8.00
2024-03-09T05:20:21.612Z,7.80
2024-03-09T05:22:53.563Z,7.70
2024-03-09T05:25:25.397Z,7.70
2024-03-09T05:27:54.593Z,7.80
2024-03-09T05:30:24.505Z,7.70
2024-03-09T05:33:05.605Z,7.70
2024-03-09T05:35:38.096Z,7.60
2024-03-09T05:38:07.137Z,7.60
2024-03-09T05:40:36.365Z,7.70
2024-03-09T05:43:10.754Z,7.70
2024-03-09T05:45:38.555Z,7.80
2024-03-09T05:48:07.308Z,8.00
2024-03-09T05:50:41.967Z,8.10
2024-03-09T05:53:37.791Z,7.90
2024-03-09T05:56:38.365Z,7.80
2024-03-09T05:59:44.446Z,7.90
2024-03-09T06:02:14.973Z,7.90
2024-03-09T06:04:43.214Z,7.80
2024-03-09T06:07:12.374Z,7.70
2024-03-09T06:09:51.552Z,7.80
2024-03-09T06:12:19.924Z,7.90
2024-03-09T06:14:47.345Z,7.90
2024-03-09T06:17:15.964Z,8.10
2024-03-09T06:19:43.214Z,8.00
2024-03-09T06:22:11.421Z,8.20
2024-03-09T06:24:40.009Z,8.30
2024-03-09T06:27:10.735Z,8.30
2024-03-09T06:29:39.419Z,8.30
2024-03-09T06:32:08.567Z,8.30
2024-03-09T06:34:36.519Z,8.30
2024-03-09T06:40:46.312Z,8.30
2024-03-09T06:43:18.448Z,8.30
2024-03-09T06:45:50.674Z,8.30
2024-03-09T06:48:19.277Z,8.20
2024-03-09T06:51:00.266Z,8.20
2024-03-09T06:53:28.708Z,8.10
2024-03-09T06:55:59.218Z,8.00
2024-03-09T06:58:27.522Z,8.00
2024-03-09T07:00:54.620Z,8.00
2024-03-09T07:03:21.693Z,8.00
2024-03-09T07:05:52.938Z,8.00
2024-03-09T07:08:23.235Z,8.00
2024-03-09T07:14:50.127Z,8.20
2024-03-09T07:18:14.479Z,8.20
2024-03-09T07:20:43.515Z,8.20
2024-03-09T07:23:15.337Z,8.30
2024-03-09T07:25:45.883Z,8.40
2024-03-09T07:28:16.286Z,8.40
2024-03-09T07:30:43.707Z,8.50
2024-03-09T07:33:19.076Z,8.60
2024-03-09T07:35:49.157Z,8.60
2024-03-09T07:38:17.199Z,8.60
2024-03-09T07:40:45.398Z,8.70
2024-03-09T07:43:21.581Z,8.80
2024-03-09T07:45:51.665Z,8.90
2024-03-09T07:48:21.919Z,9.00
2024-03-09T07:50:51.036Z,9.00
2024-03-09T07:53:26.866Z,9.00
2024-03-09T07:56:00.048Z,9.10
2024-03-09T07:58:40.989Z,9.20
2024-03-09T08:01:09.409Z,9.10
2024-03-09T08:03:36.348Z,9.20
2024-03-09T08:06:04.428Z,9.40
2024-03-09T08:08:31.722Z,9.60
2024-03-09T08:10:58.885Z,9.80
2024-03-09T08:13:26.387Z,9.80
2024-03-09T08:15:56.491Z,9.90
2024-03-09T08:18:24.982Z,9.90
2024-03-09T08:20:59.979Z,10.00
2024-03-09T08:23:27.369Z,10.00
2024-03-09T08:25:59.601Z,10.20
2024-03-09T08:28:28.193Z,10.30
2024-03-09T08:30:58.659Z,10.40
2024-03-09T08:33:26.683Z,10.30
2024-03-09T08:35:59.756Z,10.30
2024-03-09T08:41:30.079Z,10.40
2024-03-09T08:44:01.455Z,10.30
2024-03-09T08:46:29.133Z,10.20
2024-03-09T08:48:56.574Z,10.00
2024-03-09T08:51:53.807Z,10.20
2024-03-09T08:54:36.510Z,10.20
2024-03-09T09:02:42.049Z,10.20
2024-03-09T09:05:14.225Z,10.20
2024-03-09T09:07:44.457Z,10.30
2024-03-09T09:10:16.583Z,10.30
2024-03-09T09:18:43.045Z,10.60
2024-03-09T09:28:21.687Z,11.20
2024-03-09T09:33:33.166Z,11.80
2024-03-09T09:43:51.950Z,12.60
2024-03-09T09:46:26.648Z,12.40
2024-03-09T09:48:58.812Z,12.50
2024-03-09T09:51:30.868Z,12.70
2024-03-09T09:54:03.484Z,12.90
2024-03-09T09:56:31.647Z,13.30
2024-03-09T09:59:11.966Z,13.20
2024-03-09T10:01:41.219Z,13.10
2024-03-09T10:04:14.721Z,13.30
2024-03-09T10:06:43.535Z,13.10
2024-03-09T10:09:12.145Z,13.10
2024-03-09T10:11:40.880Z,13.10
2024-03-09T10:14:11.437Z,13.10
2024-03-09T10:16:43.706Z,12.90
2024-03-09T10:19:17.838Z,13.00
2024-03-09T10:21:52.545Z,13.00
2024-03-09T10:24:22.621Z,13.20
2024-03-09T10:27:00.007Z,13.30
2024-03-09T10:29:29.955Z,13.60
2024-03-09T10:32:04.412Z,13.90
2024-03-09T10:37:44.715Z,14.10
2024-03-09T10:40:15.275Z,14.10
2024-03-09T10:42:47.598Z,14.10
2024-03-09T10:45:16.116Z,14.00
2024-03-09T10:47:58.180Z,14.00
2024-03-09T10:50:28.427Z,13.90
2024-03-09T10:53:11.513Z,13.90
2024-03-09T10:55:45.270Z,14.20
2024-03-09T11:01:18.091Z,14.80
2024-03-09T11:03:55.767Z,15.00
2024-03-09T11:06:25.976Z,14.90
2024-03-09T11:08:58.252Z,15.10
2024-03-09T11:11:32.445Z,15.00
2024-03-09T11:14:12.605Z,15.20
2024-03-09T11:16:41.160Z,15.40
2024-03-09T11:19:41.467Z,15.70
2024-03-09T11:22:51.032Z,15.50
2024-03-09T11:25:53.172Z,15.50
2024-03-09T11:28:25.841Z,15.40
2024-03-09T11:31:11.971Z,15.30
2024-03-09T11:37:19.206Z,14.80
2024-03-09T11:39:52.377Z,15.10
2024-03-09T11:42:22.120Z,15.10
2024-03-09T11:44:52.797Z,15.40
2024-03-09T11:47:24.610Z,16.20
2024-03-09T11:49:55.204Z,16.80
2024-03-09T11:52:28.147Z,17.00
2024-03-09T11:55:00.692Z,17.00
2024-03-09T11:57:34.589Z,17.50
2024-03-09T12:00:06.075Z,17.70
2024-03-09T12:09:15.876Z,17.50
2024-03-09T12:11:54.413Z,17.60
2024-03-09T12:14:30.489Z,17.90
2024-03-09T12:17:00.386Z,17.90
2024-03-09T12:19:28.934Z,17.80
2024-03-09T12:21:58.742Z,17.40
2024-03-09T12:24:28.065Z,17.40
2024-03-09T12:26:58.147Z,17.60
2024-03-09T12:29:28.978Z,17.80
2024-03-09T12:32:01.862Z,18.20
2024-03-09T12:35:17.466Z,18.40
2024-03-09T12:37:47.420Z,18.40
2024-03-09T12:40:23.299Z,18.80
2024-03-09T12:42:59.072Z,19.00
2024-03-09T12:45:28.295Z,18.70
2024-03-09T12:47:56.389Z,18.30
2024-03-09T12:53:10.482Z,17.50
2024-03-09T12:55:38.714Z,17.10
2024-03-09T13:04:45.018Z,17.00
2024-03-09T13:07:41.182Z,16.30
2024-03-09T13:10:16.552Z,16.20
2024-03-09T13:12:47.129Z,16.20
2024-03-09T13:15:26.803Z,15.90
2024-03-09T13:21:39.300Z,15.80
2024-03-09T13:27:30.089Z,15.60
2024-03-09T13:36:36.760Z,15.40
2024-03-09T13:39:15.036Z,15.40
2024-03-09T13:44:32.038Z,15.20
2024-03-09T13:49:42.247Z,15.30
2024-03-09T13:56:07.857Z,15.50
2024-03-09T13:58:50.284Z,15.70
2024-03-09T14:01:23.596Z,15.80
2024-03-09T14:03:54.067Z,15.80
2024-03-09T14:06:56.517Z,15.80
2024-03-09T14:09:43.059Z,15.90
2024-03-09T14:15:59.063Z,15.90
2024-03-09T14:18:27.529Z,16.00
2024-03-09T14:20:56.671Z,15.90
2024-03-09T14:23:24.473Z,15.80
2024-03-09T14:25:54.096Z,15.80
2024-03-09T14:28:24.229Z,15.70
2024-03-09T14:30:52.817Z,15.60
2024-03-09T14:33:20.063Z,15.60
2024-03-09T14:35:48.248Z,15.70
2024-03-09T14:38:18.378Z,15.60
2024-03-09T14:40:53.115Z,15.70
2024-03-09T14:43:30.193Z,15.70
2024-03-09T14:45:58.307Z,15.70
2024-03-09T14:48:29.752Z,15.70
2024-03-09T14:50:58.239Z,15.80
2024-03-09T14:53:29.390Z,15.70
2024-03-09T14:55:58.712Z,15.60
2024-03-09T14:58:31.070Z,15.50
2024-03-09T15:01:02.601Z,15.40
2024-03-09T15:03:30.530Z,15.40
2024-03-09T15:06:00.237Z,15.30
2024-03-09T15:08:28.524Z,15.30
2024-03-09T15:10:59.524Z,15.20
2024-03-09T15:13:35.288Z,15.30
2024-03-09T15:16:02.641Z,15.20
2024-03-09T15:18:31.028Z,15.40
2024-03-09T15:21:00.308Z,15.40
2024-03-09T15:23:29.534Z,15.20
2024-03-09T15:25:57.456Z,15.20
2024-03-09T15:28:25.688Z,15.20
2024-03-09T15:30:54.688Z,15.10
2024-03-09T15:33:25.005Z,15.10
2024-03-09T15:35:53.782Z,15.10
2024-03-09T15:38:23.113Z,15.00
2024-03-09T15:40:52.740Z,15.10
2024-03-09T15:43:20.963Z,15.00
2024-03-09T15:45:48.141Z,15.10
2024-03-09T15:48:17.449Z,15.10
2024-03-09T15:50:48.216Z,15.10
2024-03-09T15:53:19.825Z,15.10
2024-03-09T15:55:51.667Z,15.10
2024-03-09T15:58:20.170Z,15.10
2024-03-09T16:00:47.277Z,15.00
2024-03-09T16:03:14.405Z,15.10
2024-03-09T16:05:42.532Z,15.10
2024-03-09T16:08:14.999Z,14.90
2024-03-09T16:10:43.894Z,15.00
2024-03-09T16:13:14.901Z,14.90
2024-03-09T16:15:49.864Z,14.90
2024-03-09T16:18:19.163Z,15.00
2024-03-09T16:20:48.962Z,15.00
2024-03-09T16:23:19.447Z,14.80
2024-03-09T16:25:50.119Z,14.90
2024-03-09T16:28:22.557Z,15.00
2024-03-09T16:30:50.871Z,15.00
2024-03-09T16:33:21.277Z,14.90
2024-03-09T16:35:49.650Z,14.90
2024-03-09T16:38:22.543Z,15.00
2024-03-09T16:40:51.233Z,15.00
2024-03-09T16:43:22.263Z,15.10
2024-03-09T16:45:49.366Z,15.00
2024-03-09T16:48:17.168Z,14.90
2024-03-09T16:50:44.376Z,14.80
2024-03-09T16:53:13.099Z,14.80
2024-03-09T16:55:43.022Z,14.80
2024-03-09T16:58:10.419Z,14.70
2024-03-09T17:00:40.330Z,14.80
2024-03-09T17:03:12.825Z,14.70
2024-03-09T17:05:41.846Z,14.70
2024-03-09T17:08:12.117Z,14.80
2024-03-09T17:10:41.271Z,14.70
2024-03-09T17:13:08.609Z,14.70
2024-03-09T17:15:36.355Z,14.70
2024-03-09T17:18:06.511Z,14.70
2024-03-09T17:20:36.630Z,14.70
2024-03-09T17:23:06.284Z,14.70
2024-03-09T17:25:39.038Z,14.70
2024-03-09T17:28:10.847Z,14.60
2024-03-09T17:30:41.145Z,14.60
2024-03-09T17:33:10.451Z,14.70
2024-03-09T17:35:38.759Z,14.60
2024-03-09T17:38:09.950Z,14.60
2024-03-09T17:40:48.702Z,14.50
2024-03-09T17:43:26.102Z,14.40
2024-03-09T17:46:05.364Z,14.40
2024-03-09T17:48:38.597Z,14.20
2024-03-09T17:51:23.054Z,14.10
2024-03-09T17:53:56.212Z,13.90
2024-03-09T17:56:25.376Z,13.90
2024-03-09T17:58:54.013Z,13.90
2024-03-09T18:01:34.048Z,14.00
2024-03-09T18:04:01.374Z,14.00
2024-03-09T18:06:28.626Z,14.10
2024-03-09T18:09:01.591Z,14.00
2024-03-09T18:11:35.005Z,14.00
2024-03-09T18:14:35.722Z,13.90
2024-03-09T18:17:19.702Z,13.90
2024-03-09T18:23:26.504Z,13.80
2024-03-09T18:33:23.967Z,13.90
2024-03-09T18:36:14.513Z,13.70
2024-03-09T18:39:19.293Z,13.70
2024-03-09T18:42:02.347Z,13.70
2024-03-09T18:44:29.920Z,13.80
2024-03-09T18:47:02.267Z,13.70
2024-03-09T18:49:43.907Z,13.70
2024-03-09T18:52:16.651Z,13.60
2024-03-09T18:54:59.823Z,13.70
2024-03-09T18:57:32.300Z,13.60
2024-03-09T19:00:07.088Z,13.50
2024-03-09T19:03:10.376Z,13.50
2024-03-09T19:05:38.202Z,13.60
2024-03-09T19:08:12.359Z,13.50
2024-03-09T19:10:46.797Z,13.50
2024-03-09T19:13:18.360Z,13.50
2024-03-09T19:15:49.717Z,13.50
2024-03-09T19:18:24.592Z,13.50
2024-03-09T19:20:55.021Z,13.60
2024-03-09T19:24:03.154Z,13.60
2024-03-09T19:30:09.927Z,13.40
2024-03-09T19:32:46.530Z,13.30
2024-03-09T19:35:23.399Z,13.30
2024-03-09T19:37:59.843Z,13.40
2024-03-09T19:40:30.050Z,13.30
2024-03-09T19:43:02.062Z,13.30
2024-03-09T19:45:32.793Z,13.30
2024-03-09T19:48:09.398Z,13.30
2024-03-09T19:50:43.220Z,13.40
2024-03-09T19:53:13.097Z,13.40
2024-03-09T19:55:49.242Z,13.30
2024-03-09T19:58:18.503Z,13.20
2024-03-09T20:00:48.030Z,13.20
2024-03-09T20:03:19.338Z,13.20
2024-03-09T20:05:53.175Z,13.30
2024-03-09T20:08:28.320Z,13.10
2024-03-09T20:11:11.486Z,13.20
2024-03-09T20:13:43.546Z,13.10
2024-03-09T20:16:35.006Z,13.10
2024-03-09T20:19:07.372Z,13.00
2024-03-09T20:24:31.515Z,12.90
2024-03-09T20:27:43.140Z,12.90
2024-03-09T20:33:18.767Z,12.70
2024-03-09T20:35:52.431Z,12.70
2024-03-09T20:47:38.390Z,12.80
2024-03-09T20:50:36.507Z,12.80
2024-03-09T20:53:49.750Z,12.80
2024-03-09T20:56:27.848Z,12.90
2024-03-09T20:59:07.840Z,12.90
2024-03-09T21:08:09.773Z,12.90
2024-03-09T21:16:45.155Z,13.20
2024-03-09T21:26:57.412Z,13.10
2024-03-09T21:35:32.165Z,13.10
2024-03-09T21:38:13.324Z,13.00
2024-03-09T21:58:08.193Z,13.00
2024-03-09T22:15:05.537Z,13.20
2024-03-09T22:17:48.891Z,13.20
2024-03-09T22:20:37.160Z,13.10
2024-03-09T22:27:06.637Z,13.20
2024-03-09T22:33:04.988Z,13.00
2024-03-09T22:38:41.115Z,13.00
2024-03-09T22:41:27.351Z,12.90
2024-03-09T22:44:02.125Z,12.80
2024-03-09T22:46:49.053Z,12.90
2024-03-09T22:52:48.874Z,12.90
2024-03-09T22:55:56.031Z,12.80
2024-03-09T23:01:43.847Z,12.70
2024-03-09T23:14:18.673Z,12.60
2024-03-09T23:17:23.131Z,12.50
2024-03-09T23:19:56.265Z,12.50
2024-03-09T23:25:24.952Z,12.50
2024-03-09T23:27:55.463Z,12.60
2024-03-09T23:36:21.066Z,12.50
2024-03-09T23:38:54.384Z,12.40
2024-03-09T23:41:24.650Z,12.40
2024-03-09T23:44:00.801Z,12.40
2024-03-09T23:46:48.407Z,12.30
2024-03-09T23:52:29.163Z,12.40
2024-03-09T23:55:43.122Z,12.50
2024-03-09T23:58:12.812Z,12.50
